sensor_id;sensor_type;location;lat;lon;timestamp;P1;durP1;ratioP1;P2;durP2;ratioP2
11298;SDS011;5705;49.006;12.100;2022-07-06T00:02:09;2.53;;;1.30;;
11298;SDS011;5705;49.006;12.100;2022-07-06T00:04:37;1.20;;;1.20;;
11298;SDS011;5705;49.006;12.100;2022-07-06T00:07:06;0.90;;;0.90;;
11298;SDS011;5705;49.006;12.100;2022-07-06T00:09:34;1.73;;;0.77;;
11298;SDS011;5705;49.006;12.100;2022-07-06T00:12:02;2.00;;;0.80;;
11298;SDS011;5705;49.006;12.100;2022-07-06T00:14:30;1.13;;;0.80;;
11298;SDS011;5705;49.006;12.100;2022-07-06T00:16:57;0.90;;;0.90;;
11298;SDS011;5705;49.006;12.100;2022-07-06T00:19:25;1.33;;;1.20;;
11298;SDS011;5705;49.006;12.100;2022-07-06T00:21:53;1.70;;;1.10;;
11298;SDS011;5705;49.006;12.100;2022-07-06T00:24:22;1.10;;;0.97;;
11298;SDS011;5705;49.006;12.100;2022-07-06T00:26:49;0.80;;;0.80;;
11298;SDS011;5705;49.006;12.100;2022-07-06T00:29:17;1.10;;;0.80;;
11298;SDS011;5705;49.006;12.100;2022-07-06T00:31:45;3.73;;;1.10;;
11298;SDS011;5705;49.006;12.100;2022-07-06T00:34:12;0.97;;;0.90;;
11298;SDS011;5705;49.006;12.100;2022-07-06T00:36:40;1.00;;;0.83;;
11298;SDS011;5705;49.006;12.100;2022-07-06T00:39:08;1.93;;;1.30;;
11298;SDS011;5705;49.006;12.100;2022-07-06T00:41:37;1.20;;;1.20;;
11298;SDS011;5705;49.006;12.100;2022-07-06T00:44:07;3.47;;;1.10;;
11298;SDS011;5705;49.006;12.100;2022-07-06T00:46:35;1.90;;;1.17;;
11298;SDS011;5705;49.006;12.100;2022-07-06T00:49:03;0.97;;;0.90;;
11298;SDS011;5705;49.006;12.100;2022-07-06T00:51:32;2.03;;;1.10;;
11298;SDS011;5705;49.006;12.100;2022-07-06T00:54:00;0.90;;;0.90;;
11298;SDS011;5705;49.006;12.100;2022-07-06T00:56:30;1.20;;;1.10;;
11298;SDS011;5705;49.006;12.100;2022-07-06T00:59:01;0.90;;;0.90;;
11298;SDS011;5705;49.006;12.100;2022-07-06T01:01:29;1.53;;;1.43;;
11298;SDS011;5705;49.006;12.100;2022-07-06T01:03:56;0.80;;;0.80;;
11298;SDS011;5705;49.006;12.100;2022-07-06T01:06:24;3.00;;;1.20;;
11298;SDS011;5705;49.006;12.100;2022-07-06T01:08:52;1.30;;;1.20;;
11298;SDS011;5705;49.006;12.100;2022-07-06T01:11:20;0.90;;;0.90;;
11298;SDS011;5705;49.006;12.100;2022-07-06T01:13:48;3.47;;;1.30;;
11298;SDS011;5705;49.006;12.100;2022-07-06T01:16:18;1.57;;;1.00;;
11298;SDS011;5705;49.006;12.100;2022-07-06T01:18:46;2.63;;;1.10;;
11298;SDS011;5705;49.006;12.100;2022-07-06T01:21:15;1.13;;;1.00;;
11298;SDS011;5705;49.006;12.100;2022-07-06T01:23:43;1.00;;;1.00;;
11298;SDS011;5705;49.006;12.100;2022-07-06T01:26:11;1.73;;;0.90;;
11298;SDS011;5705;49.006;12.100;2022-07-06T01:28:40;1.77;;;1.00;;
11298;SDS011;5705;49.006;12.100;2022-07-06T01:31:13;1.73;;;1.00;;
11298;SDS011;5705;49.006;12.100;2022-07-06T01:33:41;1.10;;;1.00;;
11298;SDS011;5705;49.006;12.100;2022-07-06T01:36:09;2.37;;;1.20;;
11298;SDS011;5705;49.006;12.100;2022-07-06T01:38:46;1.23;;;1.13;;
11298;SDS011;5705;49.006;12.100;2022-07-06T01:41:14;1.07;;;1.03;;
11298;SDS011;5705;49.006;12.100;2022-07-06T01:43:42;2.70;;;1.40;;
11298;SDS011;5705;49.006;12.100;2022-07-06T01:46:10;1.10;;;1.00;;
11298;SDS011;5705;49.006;12.100;2022-07-06T01:48:38;2.00;;;1.17;;
11298;SDS011;5705;49.006;12.100;2022-07-06T01:51:05;2.03;;;1.10;;
11298;SDS011;5705;49.006;12.100;2022-07-06T01:53:33;1.00;;;0.90;;
11298;SDS011;5705;49.006;12.100;2022-07-06T01:56:03;1.00;;;1.00;;
11298;SDS011;5705;49.006;12.100;2022-07-06T01:58:31;1.07;;;0.90;;
11298;SDS011;5705;49.006;12.100;2022-07-06T02:00:58;2.97;;;1.10;;
11298;SDS011;5705;49.006;12.100;2022-07-06T02:03:26;1.43;;;0.93;;
11298;SDS011;5705;49.006;12.100;2022-07-06T02:05:54;0.80;;;0.80;;
11298;SDS011;5705;49.006;12.100;2022-07-06T02:08:22;1.57;;;0.97;;
11298;SDS011;5705;49.006;12.100;2022-07-06T02:10:50;0.90;;;0.90;;
11298;SDS011;5705;49.006;12.100;2022-07-06T02:13:19;0.97;;;0.97;;
11298;SDS011;5705;49.006;12.100;2022-07-06T02:15:47;2.10;;;1.10;;
11298;SDS011;5705;49.006;12.100;2022-07-06T02:18:14;3.03;;;1.30;;
11298;SDS011;5705;49.006;12.100;2022-07-06T02:20:42;1.13;;;1.03;;
11298;SDS011;5705;49.006;12.100;2022-07-06T02:23:10;2.23;;;1.43;;
11298;SDS011;5705;49.006;12.100;2022-07-06T02:25:38;1.30;;;0.90;;
11298;SDS011;5705;49.006;12.100;2022-07-06T02:28:05;1.30;;;0.90;;
11298;SDS011;5705;49.006;12.100;2022-07-06T02:30:34;0.97;;;0.90;;
11298;SDS011;5705;49.006;12.100;2022-07-06T02:33:02;1.80;;;1.10;;
11298;SDS011;5705;49.006;12.100;2022-07-06T02:35:30;2.17;;;1.00;;
11298;SDS011;5705;49.006;12.100;2022-07-06T02:37:57;2.80;;;1.20;;
11298;SDS011;5705;49.006;12.100;2022-07-06T02:40:25;1.37;;;1.00;;
11298;SDS011;5705;49.006;12.100;2022-07-06T02:42:53;1.67;;;1.50;;
11298;SDS011;5705;49.006;12.100;2022-07-06T02:45:20;2.73;;;1.30;;
11298;SDS011;5705;49.006;12.100;2022-07-06T02:47:49;1.43;;;1.20;;
11298;SDS011;5705;49.006;12.100;2022-07-06T02:50:19;1.27;;;1.20;;
11298;SDS011;5705;49.006;12.100;2022-07-06T02:52:46;1.33;;;1.23;;
11298;SDS011;5705;49.006;12.100;2022-07-06T02:55:14;3.27;;;1.20;;
11298;SDS011;5705;49.006;12.100;2022-07-06T02:57:43;1.23;;;1.13;;
11298;SDS011;5705;49.006;12.100;2022-07-06T03:00:11;0.90;;;0.90;;
11298;SDS011;5705;49.006;12.100;2022-07-06T03:02:39;1.00;;;1.00;;
11298;SDS011;5705;49.006;12.100;2022-07-06T03:05:08;0.90;;;0.90;;
11298;SDS011;5705;49.006;12.100;2022-07-06T03:07:36;2.60;;;1.33;;
11298;SDS011;5705;49.006;12.100;2022-07-06T03:10:05;1.20;;;1.10;;
11298;SDS011;5705;49.006;12.100;2022-07-06T03:12:33;2.93;;;1.00;;
11298;SDS011;5705;49.006;12.100;2022-07-06T03:15:00;1.57;;;1.47;;
11298;SDS011;5705;49.006;12.100;2022-07-06T03:17:28;1.70;;;1.60;;
11298;SDS011;5705;49.006;12.100;2022-07-06T03:19:56;1.27;;;1.20;;
11298;SDS011;5705;49.006;12.100;2022-07-06T03:22:25;1.03;;;0.90;;
11298;SDS011;5705;49.006;12.100;2022-07-06T03:24:52;1.63;;;1.00;;
11298;SDS011;5705;49.006;12.100;2022-07-06T03:27:20;1.13;;;1.00;;
11298;SDS011;5705;49.006;12.100;2022-07-06T03:29:48;1.50;;;1.30;;
11298;SDS011;5705;49.006;12.100;2022-07-06T03:32:15;2.07;;;1.23;;
11298;SDS011;5705;49.006;12.100;2022-07-06T03:34:43;1.53;;;1.27;;
11298;SDS011;5705;49.006;12.100;2022-07-06T03:37:10;1.00;;;1.00;;
11298;SDS011;5705;49.006;12.100;2022-07-06T03:39:39;1.50;;;1.30;;
11298;SDS011;5705;49.006;12.100;2022-07-06T03:42:07;1.50;;;1.40;;
11298;SDS011;5705;49.006;12.100;2022-07-06T03:44:35;2.53;;;1.43;;
11298;SDS011;5705;49.006;12.100;2022-07-06T03:47:02;1.60;;;1.50;;
11298;SDS011;5705;49.006;12.100;2022-07-06T03:49:30;2.57;;;1.40;;
11298;SDS011;5705;49.006;12.100;2022-07-06T03:51:58;1.13;;;1.10;;
11298;SDS011;5705;49.006;12.100;2022-07-06T03:54:25;0.90;;;0.90;;
11298;SDS011;5705;49.006;12.100;2022-07-06T03:56:54;1.73;;;1.30;;
11298;SDS011;5705;49.006;12.100;2022-07-06T03:59:22;1.93;;;1.30;;
11298;SDS011;5705;49.006;12.100;2022-07-06T04:01:50;1.20;;;1.10;;
11298;SDS011;5705;49.006;12.100;2022-07-06T04:04:19;1.20;;;1.20;;
11298;SDS011;5705;49.006;12.100;2022-07-06T04:06:46;4.13;;;1.47;;
11298;SDS011;5705;49.006;12.100;2022-07-06T04:09:14;3.90;;;1.30;;
11298;SDS011;5705;49.006;12.100;2022-07-06T04:11:42;1.43;;;1.20;;
11298;SDS011;5705;49.006;12.100;2022-07-06T04:14:11;1.13;;;1.10;;
11298;SDS011;5705;49.006;12.100;2022-07-06T04:16:38;1.27;;;1.17;;
11298;SDS011;5705;49.006;12.100;2022-07-06T04:19:06;1.97;;;1.53;;
11298;SDS011;5705;49.006;12.100;2022-07-06T04:21:34;1.40;;;1.30;;
11298;SDS011;5705;49.006;12.100;2022-07-06T04:24:01;1.37;;;1.27;;
11298;SDS011;5705;49.006;12.100;2022-07-06T04:26:29;1.37;;;1.37;;
11298;SDS011;5705;49.006;12.100;2022-07-06T04:28:57;2.73;;;1.30;;
11298;SDS011;5705;49.006;12.100;2022-07-06T04:31:26;1.40;;;1.30;;
11298;SDS011;5705;49.006;12.100;2022-07-06T04:33:54;1.00;;;1.00;;
11298;SDS011;5705;49.006;12.100;2022-07-06T04:36:21;1.20;;;1.10;;
11298;SDS011;5705;49.006;12.100;2022-07-06T04:38:49;1.00;;;1.00;;
11298;SDS011;5705;49.006;12.100;2022-07-06T04:41:17;1.77;;;1.50;;
11298;SDS011;5705;49.006;12.100;2022-07-06T04:43:44;1.30;;;1.20;;
11298;SDS011;5705;49.006;12.100;2022-07-06T04:46:12;1.20;;;1.17;;
11298;SDS011;5705;49.006;12.100;2022-07-06T04:48:41;1.13;;;1.03;;
11298;SDS011;5705;49.006;12.100;2022-07-06T04:51:08;3.43;;;1.60;;
11298;SDS011;5705;49.006;12.100;2022-07-06T04:53:36;2.20;;;1.30;;
11298;SDS011;5705;49.006;12.100;2022-07-06T04:56:04;1.97;;;1.20;;
11298;SDS011;5705;49.006;12.100;2022-07-06T04:58:32;2.20;;;1.27;;
11298;SDS011;5705;49.006;12.100;2022-07-06T05:00:59;3.50;;;1.60;;
11298;SDS011;5705;49.006;12.100;2022-07-06T05:03:27;2.20;;;1.23;;
11298;SDS011;5705;49.006;12.100;2022-07-06T05:05:56;1.27;;;1.17;;
11298;SDS011;5705;49.006;12.100;2022-07-06T05:08:24;2.47;;;1.30;;
11298;SDS011;5705;49.006;12.100;2022-07-06T05:10:52;2.43;;;1.40;;
11298;SDS011;5705;49.006;12.100;2022-07-06T05:13:20;1.27;;;1.17;;
11298;SDS011;5705;49.006;12.100;2022-07-06T05:15:47;1.67;;;1.00;;
11298;SDS011;5705;49.006;12.100;2022-07-06T05:18:15;1.20;;;1.10;;
11298;SDS011;5705;49.006;12.100;2022-07-06T05:20:43;1.23;;;1.13;;
11298;SDS011;5705;49.006;12.100;2022-07-06T05:23:12;1.23;;;1.07;;
11298;SDS011;5705;49.006;12.100;2022-07-06T05:25:40;1.53;;;1.00;;
11298;SDS011;5705;49.006;12.100;2022-07-06T05:28:08;2.20;;;1.20;;
11298;SDS011;5705;49.006;12.100;2022-07-06T05:30:35;3.50;;;1.07;;
11298;SDS011;5705;49.006;12.100;2022-07-06T05:33:03;1.57;;;1.10;;
11298;SDS011;5705;49.006;12.100;2022-07-06T05:35:31;2.50;;;1.30;;
11298;SDS011;5705;49.006;12.100;2022-07-06T05:38:17;1.30;;;1.20;;
11298;SDS011;5705;49.006;12.100;2022-07-06T05:40:46;1.67;;;1.10;;
11298;SDS011;5705;49.006;12.100;2022-07-06T05:43:13;2.50;;;1.03;;
11298;SDS011;5705;49.006;12.100;2022-07-06T05:45:41;1.50;;;1.00;;
11298;SDS011;5705;49.006;12.100;2022-07-06T05:48:09;0.73;;;0.73;;
11298;SDS011;5705;49.006;12.100;2022-07-06T05:50:55;18.00;;;9.93;;
11298;SDS011;5705;49.006;12.100;2022-07-06T05:53:24;371.20;;;222.53;;
11298;SDS011;5705;49.006;12.100;2022-07-06T05:55:52;311.63;;;133.33;;
11298;SDS011;5705;49.006;12.100;2022-07-06T05:58:20;252.67;;;132.80;;
11298;SDS011;5705;49.006;12.100;2022-07-06T06:00:48;125.23;;;74.43;;
11298;SDS011;5705;49.006;12.100;2022-07-06T06:03:15;163.83;;;103.10;;
11298;SDS011;5705;49.006;12.100;2022-07-06T06:05:43;28.17;;;20.33;;
11298;SDS011;5705;49.006;12.100;2022-07-06T06:08:11;10.07;;;7.40;;
11298;SDS011;5705;49.006;12.100;2022-07-06T06:10:40;10.83;;;8.00;;
11298;SDS011;5705;49.006;12.100;2022-07-06T06:13:08;3.00;;;2.70;;
11298;SDS011;5705;49.006;12.100;2022-07-06T06:15:35;2.43;;;1.67;;
11298;SDS011;5705;49.006;12.100;2022-07-06T06:18:03;2.00;;;1.67;;
11298;SDS011;5705;49.006;12.100;2022-07-06T06:20:31;1.67;;;1.10;;
11298;SDS011;5705;49.006;12.100;2022-07-06T06:22:59;2.57;;;1.40;;
11298;SDS011;5705;49.006;12.100;2022-07-06T06:25:27;1.40;;;1.40;;
11298;SDS011;5705;49.006;12.100;2022-07-06T06:27:58;2.23;;;1.60;;
11298;SDS011;5705;49.006;12.100;2022-07-06T06:30:26;3.47;;;1.37;;
11298;SDS011;5705;49.006;12.100;2022-07-06T06:33:04;1.33;;;1.33;;
11298;SDS011;5705;49.006;12.100;2022-07-06T06:35:33;1.87;;;1.00;;
11298;SDS011;5705;49.006;12.100;2022-07-06T06:38:00;1.67;;;1.07;;
11298;SDS011;5705;49.006;12.100;2022-07-06T06:40:28;1.13;;;1.13;;
11298;SDS011;5705;49.006;12.100;2022-07-06T06:42:57;1.00;;;0.90;;
11298;SDS011;5705;49.006;12.100;2022-07-06T06:45:25;2.03;;;1.07;;
11298;SDS011;5705;49.006;12.100;2022-07-06T06:47:53;2.20;;;1.50;;
11298;SDS011;5705;49.006;12.100;2022-07-06T06:50:21;1.53;;;1.20;;
11298;SDS011;5705;49.006;12.100;2022-07-06T06:52:49;2.23;;;1.70;;
11298;SDS011;5705;49.006;12.100;2022-07-06T06:55:17;1.50;;;1.23;;
11298;SDS011;5705;49.006;12.100;2022-07-06T06:57:45;3.60;;;1.83;;
11298;SDS011;5705;49.006;12.100;2022-07-06T07:00:14;1.53;;;1.43;;
11298;SDS011;5705;49.006;12.100;2022-07-06T07:02:43;3.73;;;1.60;;
11298;SDS011;5705;49.006;12.100;2022-07-06T07:05:11;1.60;;;1.50;;
11298;SDS011;5705;49.006;12.100;2022-07-06T07:07:39;1.60;;;1.50;;
11298;SDS011;5705;49.006;12.100;2022-07-06T07:10:07;2.00;;;1.77;;
11298;SDS011;5705;49.006;12.100;2022-07-06T07:12:35;2.77;;;1.83;;
11298;SDS011;5705;49.006;12.100;2022-07-06T07:15:09;1.70;;;1.60;;
11298;SDS011;5705;49.006;12.100;2022-07-06T07:17:39;1.40;;;1.30;;
11298;SDS011;5705;49.006;12.100;2022-07-06T07:20:07;3.57;;;1.70;;
11298;SDS011;5705;49.006;12.100;2022-07-06T07:22:36;2.00;;;1.50;;
11298;SDS011;5705;49.006;12.100;2022-07-06T07:25:04;1.80;;;1.20;;
11298;SDS011;5705;49.006;12.100;2022-07-06T07:27:32;1.40;;;1.30;;
11298;SDS011;5705;49.006;12.100;2022-07-06T07:30:00;1.70;;;1.60;;
11298;SDS011;5705;49.006;12.100;2022-07-06T07:32:28;1.47;;;1.33;;
11298;SDS011;5705;49.006;12.100;2022-07-06T07:34:57;2.27;;;1.30;;
11298;SDS011;5705;49.006;12.100;2022-07-06T07:37:24;4.27;;;1.90;;
11298;SDS011;5705;49.006;12.100;2022-07-06T07:39:52;3.23;;;1.70;;
11298;SDS011;5705;49.006;12.100;2022-07-06T07:42:20;2.50;;;1.30;;
11298;SDS011;5705;49.006;12.100;2022-07-06T07:44:47;1.60;;;1.37;;
11298;SDS011;5705;49.006;12.100;2022-07-06T07:47:15;2.30;;;1.20;;
11298;SDS011;5705;49.006;12.100;2022-07-06T07:49:42;1.37;;;1.00;;
11298;SDS011;5705;49.006;12.100;2022-07-06T07:52:11;1.10;;;1.10;;
11298;SDS011;5705;49.006;12.100;2022-07-06T07:54:39;1.67;;;1.53;;
11298;SDS011;5705;49.006;12.100;2022-07-06T07:57:14;2.33;;;1.40;;
11298;SDS011;5705;49.006;12.100;2022-07-06T07:59:41;2.10;;;1.17;;
11298;SDS011;5705;49.006;12.100;2022-07-06T08:02:09;2.23;;;1.30;;
11298;SDS011;5705;49.006;12.100;2022-07-06T08:04:37;1.47;;;1.20;;
11298;SDS011;5705;49.006;12.100;2022-07-06T08:07:04;3.13;;;1.33;;
11298;SDS011;5705;49.006;12.100;2022-07-06T08:09:33;1.73;;;1.27;;
11298;SDS011;5705;49.006;12.100;2022-07-06T08:12:01;1.30;;;1.30;;
11298;SDS011;5705;49.006;12.100;2022-07-06T08:14:29;1.20;;;1.00;;
11298;SDS011;5705;49.006;12.100;2022-07-06T08:16:56;1.30;;;1.20;;
11298;SDS011;5705;49.006;12.100;2022-07-06T08:19:24;1.00;;;1.00;;
11298;SDS011;5705;49.006;12.100;2022-07-06T08:21:52;1.10;;;1.10;;
11298;SDS011;5705;49.006;12.100;2022-07-06T08:24:19;1.13;;;0.90;;
11298;SDS011;5705;49.006;12.100;2022-07-06T08:26:49;0.93;;;0.83;;
11298;SDS011;5705;49.006;12.100;2022-07-06T08:29:16;2.50;;;1.10;;
11298;SDS011;5705;49.006;12.100;2022-07-06T08:31:44;2.10;;;1.10;;
11298;SDS011;5705;49.006;12.100;2022-07-06T08:34:21;1.00;;;0.97;;
11298;SDS011;5705;49.006;12.100;2022-07-06T08:36:49;1.47;;;1.10;;
11298;SDS011;5705;49.006;12.100;2022-07-06T08:39:17;1.30;;;0.90;;
11298;SDS011;5705;49.006;12.100;2022-07-06T08:41:44;1.80;;;1.20;;
11298;SDS011;5705;49.006;12.100;2022-07-06T08:44:15;0.80;;;0.80;;
11298;SDS011;5705;49.006;12.100;2022-07-06T08:46:44;2.07;;;1.10;;
11298;SDS011;5705;49.006;12.100;2022-07-06T08:49:13;1.17;;;1.13;;
11298;SDS011;5705;49.006;12.100;2022-07-06T08:51:43;1.60;;;1.10;;
11298;SDS011;5705;49.006;12.100;2022-07-06T08:54:11;1.20;;;1.10;;
11298;SDS011;5705;49.006;12.100;2022-07-06T08:56:39;2.00;;;0.93;;
11298;SDS011;5705;49.006;12.100;2022-07-06T08:59:13;1.47;;;0.90;;
11298;SDS011;5705;49.006;12.100;2022-07-06T09:01:42;0.80;;;0.80;;
11298;SDS011;5705;49.006;12.100;2022-07-06T09:04:12;1.17;;;1.13;;
11298;SDS011;5705;49.006;12.100;2022-07-06T09:06:41;1.80;;;1.30;;
11298;SDS011;5705;49.006;12.100;2022-07-06T09:09:09;2.50;;;1.27;;
11298;SDS011;5705;49.006;12.100;2022-07-06T09:11:38;6.77;;;1.77;;
11298;SDS011;5705;49.006;12.100;2022-07-06T09:14:05;5.70;;;2.07;;
11298;SDS011;5705;49.006;12.100;2022-07-06T09:16:34;1.13;;;1.00;;
11298;SDS011;5705;49.006;12.100;2022-07-06T09:19:05;3.30;;;1.37;;
11298;SDS011;5705;49.006;12.100;2022-07-06T09:21:34;1.47;;;0.93;;
11298;SDS011;5705;49.006;12.100;2022-07-06T09:24:06;1.37;;;1.20;;
11298;SDS011;5705;49.006;12.100;2022-07-06T09:26:35;0.80;;;0.80;;
11298;SDS011;5705;49.006;12.100;2022-07-06T09:29:03;1.77;;;0.93;;
11298;SDS011;5705;49.006;12.100;2022-07-06T09:31:31;2.73;;;1.20;;
11298;SDS011;5705;49.006;12.100;2022-07-06T09:34:01;2.03;;;1.07;;
11298;SDS011;5705;49.006;12.100;2022-07-06T09:36:38;1.80;;;1.30;;
11298;SDS011;5705;49.006;12.100;2022-07-06T09:39:14;0.87;;;0.87;;
11298;SDS011;5705;49.006;12.100;2022-07-06T09:41:45;2.40;;;1.10;;
11298;SDS011;5705;49.006;12.100;2022-07-06T09:44:18;0.83;;;0.80;;
11298;SDS011;5705;49.006;12.100;2022-07-06T09:46:47;1.63;;;1.00;;
11298;SDS011;5705;49.006;12.100;2022-07-06T09:49:18;1.13;;;1.00;;
11298;SDS011;5705;49.006;12.100;2022-07-06T09:51:46;2.43;;;0.90;;
11298;SDS011;5705;49.006;12.100;2022-07-06T09:54:14;0.90;;;0.90;;
11298;SDS011;5705;49.006;12.100;2022-07-06T09:56:43;2.67;;;1.13;;
11298;SDS011;5705;49.006;12.100;2022-07-06T09:59:14;2.97;;;1.10;;
11298;SDS011;5705;49.006;12.100;2022-07-06T10:01:43;2.90;;;1.07;;
11298;SDS011;5705;49.006;12.100;2022-07-06T10:04:12;0.97;;;0.97;;
11298;SDS011;5705;49.006;12.100;2022-07-06T10:06:42;0.93;;;0.70;;
11298;SDS011;5705;49.006;12.100;2022-07-06T10:09:10;0.80;;;0.80;;
11298;SDS011;5705;49.006;12.100;2022-07-06T10:11:41;1.13;;;1.07;;
11298;SDS011;5705;49.006;12.100;2022-07-06T10:14:10;2.43;;;0.80;;
11298;SDS011;5705;49.006;12.100;2022-07-06T10:16:40;2.03;;;1.20;;
11298;SDS011;5705;49.006;12.100;2022-07-06T10:19:08;2.43;;;0.90;;
11298;SDS011;5705;49.006;12.100;2022-07-06T10:21:36;3.27;;;0.80;;
11298;SDS011;5705;49.006;12.100;2022-07-06T10:24:06;1.60;;;1.10;;
11298;SDS011;5705;49.006;12.100;2022-07-06T10:26:35;2.47;;;0.90;;
11298;SDS011;5705;49.006;12.100;2022-07-06T10:29:04;2.13;;;0.80;;
11298;SDS011;5705;49.006;12.100;2022-07-06T10:31:33;0.93;;;0.90;;
11298;SDS011;5705;49.006;12.100;2022-07-06T10:34:03;1.07;;;1.00;;
11298;SDS011;5705;49.006;12.100;2022-07-06T10:36:36;0.63;;;0.63;;
11298;SDS011;5705;49.006;12.100;2022-07-06T10:39:07;1.17;;;0.70;;
11298;SDS011;5705;49.006;12.100;2022-07-06T10:41:52;1.20;;;0.87;;
11298;SDS011;5705;49.006;12.100;2022-07-06T10:44:20;0.70;;;0.70;;
11298;SDS011;5705;49.006;12.100;2022-07-06T10:46:49;1.50;;;0.60;;
11298;SDS011;5705;49.006;12.100;2022-07-06T10:49:21;0.70;;;0.70;;
11298;SDS011;5705;49.006;12.100;2022-07-06T10:52:09;1.00;;;0.87;;
11298;SDS011;5705;49.006;12.100;2022-07-06T10:54:39;1.63;;;0.70;;
11298;SDS011;5705;49.006;12.100;2022-07-06T10:57:08;0.63;;;0.63;;
11298;SDS011;5705;49.006;12.100;2022-07-06T10:59:36;0.77;;;0.60;;
11298;SDS011;5705;49.006;12.100;2022-07-06T11:02:11;1.83;;;0.60;;
11298;SDS011;5705;49.006;12.100;2022-07-06T11:04:41;1.17;;;0.80;;
11298;SDS011;5705;49.006;12.100;2022-07-06T11:07:10;0.60;;;0.60;;
11298;SDS011;5705;49.006;12.100;2022-07-06T11:09:40;0.60;;;0.60;;
11298;SDS011;5705;49.006;12.100;2022-07-06T11:12:16;2.93;;;0.83;;
11298;SDS011;5705;49.006;12.100;2022-07-06T11:14:46;0.90;;;0.60;;
11298;SDS011;5705;49.006;12.100;2022-07-06T11:17:14;1.10;;;0.70;;
11298;SDS011;5705;49.006;12.100;2022-07-06T11:19:49;1.20;;;0.70;;
11298;SDS011;5705;49.006;12.100;2022-07-06T11:22:17;1.60;;;0.50;;
11298;SDS011;5705;49.006;12.100;2022-07-06T11:24:47;0.97;;;0.70;;
11298;SDS011;5705;49.006;12.100;2022-07-06T11:27:15;0.60;;;0.60;;
11298;SDS011;5705;49.006;12.100;2022-07-06T11:29:42;0.93;;;0.70;;
11298;SDS011;5705;49.006;12.100;2022-07-06T11:32:11;1.43;;;0.90;;
11298;SDS011;5705;49.006;12.100;2022-07-06T11:34:40;0.73;;;0.73;;
11298;SDS011;5705;49.006;12.100;2022-07-06T11:37:09;1.10;;;0.70;;
11298;SDS011;5705;49.006;12.100;2022-07-06T11:39:38;1.00;;;0.90;;
11298;SDS011;5705;49.006;12.100;2022-07-06T11:42:08;2.10;;;0.70;;
11298;SDS011;5705;49.006;12.100;2022-07-06T11:44:37;0.93;;;0.80;;
11298;SDS011;5705;49.006;12.100;2022-07-06T11:47:06;0.90;;;0.60;;
11298;SDS011;5705;49.006;12.100;2022-07-06T11:49:36;1.27;;;1.20;;
11298;SDS011;5705;49.006;12.100;2022-07-06T11:52:07;1.10;;;0.70;;
11298;SDS011;5705;49.006;12.100;2022-07-06T11:54:36;0.67;;;0.67;;
11298;SDS011;5705;49.006;12.100;2022-07-06T11:57:07;1.17;;;1.10;;
11298;SDS011;5705;49.006;12.100;2022-07-06T11:59:37;0.80;;;0.80;;
11298;SDS011;5705;49.006;12.100;2022-07-06T12:02:06;2.20;;;0.77;;
11298;SDS011;5705;49.006;12.100;2022-07-06T12:04:35;0.60;;;0.60;;
11298;SDS011;5705;49.006;12.100;2022-07-06T12:07:05;1.27;;;1.17;;
11298;SDS011;5705;49.006;12.100;2022-07-06T12:09:35;1.20;;;0.90;;
11298;SDS011;5705;49.006;12.100;2022-07-06T12:12:04;2.43;;;0.70;;
11298;SDS011;5705;49.006;12.100;2022-07-06T12:14:34;0.80;;;0.80;;
11298;SDS011;5705;49.006;12.100;2022-07-06T12:17:04;1.93;;;0.80;;
11298;SDS011;5705;49.006;12.100;2022-07-06T12:19:32;1.17;;;0.77;;
11298;SDS011;5705;49.006;12.100;2022-07-06T12:22:00;2.63;;;0.90;;
11298;SDS011;5705;49.006;12.100;2022-07-06T12:24:29;1.00;;;0.70;;
11298;SDS011;5705;49.006;12.100;2022-07-06T12:27:08;0.80;;;0.80;;
11298;SDS011;5705;49.006;12.100;2022-07-06T12:29:38;1.83;;;0.70;;
11298;SDS011;5705;49.006;12.100;2022-07-06T12:32:06;1.00;;;0.80;;
11298;SDS011;5705;49.006;12.100;2022-07-06T12:34:34;2.27;;;0.90;;
11298;SDS011;5705;49.006;12.100;2022-07-06T12:37:05;1.77;;;0.70;;
11298;SDS011;5705;49.006;12.100;2022-07-06T12:39:40;0.53;;;0.53;;
11298;SDS011;5705;49.006;12.100;2022-07-06T12:42:08;1.40;;;0.80;;
11298;SDS011;5705;49.006;12.100;2022-07-06T12:44:45;1.73;;;0.70;;
11298;SDS011;5705;49.006;12.100;2022-07-06T12:47:16;1.47;;;0.83;;
11298;SDS011;5705;49.006;12.100;2022-07-06T12:49:45;2.13;;;0.90;;
11298;SDS011;5705;49.006;12.100;2022-07-06T12:52:13;3.37;;;0.50;;
11298;SDS011;5705;49.006;12.100;2022-07-06T12:54:42;2.40;;;0.60;;
11298;SDS011;5705;49.006;12.100;2022-07-06T12:57:11;3.27;;;0.87;;
11298;SDS011;5705;49.006;12.100;2022-07-06T12:59:43;1.07;;;0.60;;
11298;SDS011;5705;49.006;12.100;2022-07-06T13:02:20;0.80;;;0.67;;
11298;SDS011;5705;49.006;12.100;2022-07-06T13:05:09;0.60;;;0.60;;
11298;SDS011;5705;49.006;12.100;2022-07-06T13:07:39;0.70;;;0.53;;
11298;SDS011;5705;49.006;12.100;2022-07-06T13:10:11;1.70;;;0.77;;
11298;SDS011;5705;49.006;12.100;2022-07-06T13:12:40;0.83;;;0.70;;
11298;SDS011;5705;49.006;12.100;2022-07-06T13:15:10;1.13;;;0.57;;
11298;SDS011;5705;49.006;12.100;2022-07-06T13:17:38;2.70;;;0.83;;
11298;SDS011;5705;49.006;12.100;2022-07-06T13:20:06;0.87;;;0.70;;
11298;SDS011;5705;49.006;12.100;2022-07-06T13:22:34;0.60;;;0.60;;
11298;SDS011;5705;49.006;12.100;2022-07-06T13:25:03;1.63;;;0.67;;
11298;SDS011;5705;49.006;12.100;2022-07-06T13:27:31;0.63;;;0.50;;
11298;SDS011;5705;49.006;12.100;2022-07-06T13:29:59;0.80;;;0.80;;
11298;SDS011;5705;49.006;12.100;2022-07-06T13:32:28;1.60;;;0.67;;
11298;SDS011;5705;49.006;12.100;2022-07-06T13:34:56;1.27;;;0.60;;
11298;SDS011;5705;49.006;12.100;2022-07-06T13:37:24;0.57;;;0.57;;
11298;SDS011;5705;49.006;12.100;2022-07-06T13:39:52;2.60;;;0.60;;
11298;SDS011;5705;49.006;12.100;2022-07-06T13:42:19;0.70;;;0.60;;
11298;SDS011;5705;49.006;12.100;2022-07-06T13:44:47;2.37;;;0.70;;
11298;SDS011;5705;49.006;12.100;2022-07-06T13:47:15;2.33;;;0.60;;
11298;SDS011;5705;49.006;12.100;2022-07-06T13:49:44;1.70;;;0.83;;
11298;SDS011;5705;49.006;12.100;2022-07-06T13:52:14;0.93;;;0.53;;
11298;SDS011;5705;49.006;12.100;2022-07-06T13:54:44;1.90;;;0.60;;
11298;SDS011;5705;49.006;12.100;2022-07-06T13:57:12;0.60;;;0.60;;
11298;SDS011;5705;49.006;12.100;2022-07-06T13:59:40;0.83;;;0.60;;
11298;SDS011;5705;49.006;12.100;2022-07-06T14:02:08;1.30;;;0.80;;
11298;SDS011;5705;49.006;12.100;2022-07-06T14:04:37;1.23;;;0.60;;
11298;SDS011;5705;49.006;12.100;2022-07-06T14:07:06;1.00;;;0.70;;
11298;SDS011;5705;49.006;12.100;2022-07-06T14:09:34;0.50;;;0.50;;
11298;SDS011;5705;49.006;12.100;2022-07-06T14:12:02;3.10;;;0.60;;
11298;SDS011;5705;49.006;12.100;2022-07-06T14:14:31;1.50;;;0.47;;
11298;SDS011;5705;49.006;12.100;2022-07-06T14:16:58;1.97;;;0.80;;
11298;SDS011;5705;49.006;12.100;2022-07-06T14:19:26;2.43;;;0.83;;
11298;SDS011;5705;49.006;12.100;2022-07-06T14:21:54;1.53;;;0.80;;
11298;SDS011;5705;49.006;12.100;2022-07-06T14:24:24;1.50;;;0.60;;
11298;SDS011;5705;49.006;12.100;2022-07-06T14:26:57;0.97;;;0.70;;
11298;SDS011;5705;49.006;12.100;2022-07-06T14:29:25;1.93;;;0.80;;
11298;SDS011;5705;49.006;12.100;2022-07-06T14:31:52;0.60;;;0.60;;
11298;SDS011;5705;49.006;12.100;2022-07-06T14:34:20;1.80;;;0.70;;
11298;SDS011;5705;49.006;12.100;2022-07-06T14:36:48;1.90;;;0.70;;
11298;SDS011;5705;49.006;12.100;2022-07-06T14:39:15;0.60;;;0.60;;
11298;SDS011;5705;49.006;12.100;2022-07-06T14:41:44;0.93;;;0.80;;
11298;SDS011;5705;49.006;12.100;2022-07-06T14:44:12;0.80;;;0.80;;
11298;SDS011;5705;49.006;12.100;2022-07-06T14:46:40;0.70;;;0.70;;
11298;SDS011;5705;49.006;12.100;2022-07-06T14:49:07;2.70;;;1.07;;
11298;SDS011;5705;49.006;12.100;2022-07-06T14:51:35;3.67;;;0.73;;
11298;SDS011;5705;49.006;12.100;2022-07-06T14:54:03;0.93;;;0.57;;
11298;SDS011;5705;49.006;12.100;2022-07-06T14:56:30;3.60;;;0.67;;
11298;SDS011;5705;49.006;12.100;2022-07-06T14:58:59;1.00;;;0.73;;